Aviation Digital Data Service (ADDS)

Output produced by METARs form (0225 UTC 16 January 2019)
found at http://www.aviationweather.gov/metar/data/
 
TAF MTCH 151700Z 1518/1618 06008KT 9000 SCT024TCU 
     PROB30 
     TEMPO 1602/1608 36010KT 4800 TSRA SCT024CB BKN040 
     FM160900 VRB02KT 7000 NSW FEWO24
       
TAF MTPP 152300Z 1600/1700 30008KT 9000 SCT024TCU 
     PROB30 
     TEMPO 1602/1608 36010KT 4800 SHRA FEW024CB BKN020 
     FM160900 VRB02KT 7000 NSW FEWO24